createdAt,value
2022-10-18T00:00:06.014Z,19.47
2022-10-18T00:02:32.589Z,21.40
2022-10-18T00:04:59.163Z,22.73
2022-10-18T00:07:25.636Z,17.07
2022-10-18T00:09:52.417Z,19.33
2022-10-18T00:12:18.943Z,17.60
2022-10-18T00:14:49.791Z,20.47
2022-10-18T00:17:16.748Z,19.33
2022-10-18T00:19:43.325Z,18.87
2022-10-18T00:22:09.815Z,18.93
2022-10-18T00:24:36.340Z,19.70
2022-10-18T00:27:02.818Z,19.90
2022-10-18T00:29:29.306Z,20.20
2022-10-18T00:31:55.785Z,20.43
2022-10-18T00:34:22.294Z,21.57
2022-10-18T00:36:48.855Z,21.30
2022-10-18T00:39:19.063Z,20.63
2022-10-18T00:41:46.493Z,17.90
2022-10-18T00:44:12.936Z,23.77
2022-10-18T00:46:42.554Z,24.90
2022-10-18T00:49:15.793Z,23.37
2022-10-18T00:51:50.030Z,22.17
2022-10-18T00:54:18.147Z,23.57
2022-10-18T00:56:45.452Z,22.70
2022-10-18T00:59:14.853Z,25.67
2022-10-18T01:01:41.506Z,29.33
2022-10-18T01:04:08.073Z,27.03
2022-10-18T01:06:46.608Z,24.27
2022-10-18T01:09:48.663Z,28.37
2022-10-18T01:12:47.613Z,24.03
2022-10-18T01:15:29.168Z,35.43
2022-10-18T01:18:46.827Z,30.30
2022-10-18T01:21:31.855Z,33.43
2022-10-18T01:24:30.895Z,26.93
2022-10-18T01:27:00.247Z,31.70
2022-10-18T01:29:53.250Z,32.03
2022-10-18T01:32:24.905Z,27.10
2022-10-18T01:34:55.926Z,34.20
2022-10-18T01:37:23.194Z,36.97
2022-10-18T01:39:55.040Z,40.57
2022-10-18T01:42:21.902Z,38.43
2022-10-18T01:44:52.122Z,34.30
2022-10-18T01:47:19.678Z,32.17
2022-10-18T01:49:46.754Z,36.63
2022-10-18T01:52:15.239Z,34.20
2022-10-18T01:54:49.030Z,37.10
2022-10-18T01:57:24.809Z,33.93
2022-10-18T01:59:57.529Z,32.97
2022-10-18T02:02:34.737Z,34.87
2022-10-18T02:05:25.816Z,34.47
2022-10-18T02:08:19.271Z,35.50
2022-10-18T02:10:50.623Z,32.37
2022-10-18T02:13:20.754Z,36.23
2022-10-18T02:15:50.599Z,33.90
2022-10-18T02:18:36.508Z,33.83
2022-10-18T02:21:05.703Z,36.97
2022-10-18T02:23:35.043Z,39.57
2022-10-18T02:26:02.153Z,37.10
2022-10-18T02:28:28.755Z,38.70
2022-10-18T02:31:10.806Z,38.33
2022-10-18T02:34:04.533Z,42.77
2022-10-18T02:36:46.366Z,40.00
2022-10-18T02:39:16.738Z,35.80
2022-10-18T02:41:43.674Z,38.57
2022-10-18T02:44:10.957Z,38.53
2022-10-18T02:46:37.615Z,43.10
2022-10-18T02:49:04.162Z,44.70
2022-10-18T02:51:31.220Z,39.03
2022-10-18T02:53:57.712Z,40.30
2022-10-18T02:56:24.281Z,39.83
2022-10-18T02:58:50.746Z,40.20
2022-10-18T03:01:17.336Z,49.13
2022-10-18T03:03:43.835Z,37.83
2022-10-18T03:06:10.404Z,45.13
2022-10-18T03:08:36.896Z,43.93
2022-10-18T03:11:03.451Z,42.37
2022-10-18T03:16:01.887Z,41.87
2022-10-18T03:18:28.447Z,39.30
2022-10-18T03:20:54.955Z,36.90
2022-10-18T03:23:21.799Z,37.30
2022-10-18T03:25:48.365Z,34.10
2022-10-18T03:28:14.865Z,39.60
2022-10-18T03:30:41.359Z,35.60
2022-10-18T03:33:07.841Z,35.20
2022-10-18T03:35:34.648Z,37.67
2022-10-18T03:38:01.206Z,33.87
2022-10-18T03:40:27.899Z,31.83
2022-10-18T03:42:54.410Z,35.87
2022-10-18T03:45:21.088Z,28.80
2022-10-18T03:47:47.654Z,28.87
2022-10-18T03:50:14.236Z,32.00
2022-10-18T03:52:40.776Z,27.87
2022-10-18T03:55:07.734Z,26.70
2022-10-18T03:57:34.312Z,30.03
2022-10-18T04:00:00.882Z,26.03
2022-10-18T04:02:27.382Z,23.23
2022-10-18T04:04:53.850Z,23.33
2022-10-18T04:07:20.360Z,23.03
2022-10-18T04:09:46.905Z,25.57
2022-10-18T04:12:13.486Z,24.57
2022-10-18T04:14:39.970Z,27.37
2022-10-18T04:17:06.495Z,30.10
2022-10-18T04:19:32.996Z,25.30
2022-10-18T04:21:59.493Z,23.53
2022-10-18T04:24:26.014Z,21.83
2022-10-18T04:26:52.511Z,22.63
2022-10-18T04:29:18.975Z,25.73
2022-10-18T04:31:45.497Z,23.73
2022-10-18T04:34:12.082Z,23.23
2022-10-18T04:36:38.588Z,22.13
2022-10-18T04:39:05.066Z,21.87
2022-10-18T04:41:31.607Z,24.20
2022-10-18T04:43:58.080Z,25.83
2022-10-18T04:46:24.594Z,23.73
2022-10-18T04:48:51.099Z,26.67
2022-10-18T04:51:17.621Z,29.20
2022-10-18T04:53:44.124Z,28.93
2022-10-18T04:56:10.841Z,34.97
2022-10-18T04:58:37.334Z,28.50
2022-10-18T05:01:07.743Z,35.90
2022-10-18T05:03:34.462Z,35.70
2022-10-18T05:06:02.575Z,33.43
2022-10-18T05:08:30.729Z,40.10
2022-10-18T05:10:57.437Z,47.47
2022-10-18T05:13:24.078Z,46.97
2022-10-18T05:15:50.868Z,48.67
2022-10-18T05:18:17.513Z,47.27
2022-10-18T05:20:44.126Z,46.23
2022-10-18T05:23:10.964Z,50.10
2022-10-18T05:25:42.062Z,62.13
2022-10-18T05:28:10.777Z,55.20
2022-10-18T05:30:47.858Z,74.30
2022-10-18T05:33:14.376Z,77.43
2022-10-18T05:35:40.857Z,61.93
2022-10-18T05:38:07.452Z,79.53
2022-10-18T05:40:33.993Z,64.53
2022-10-18T05:43:00.535Z,69.93
2022-10-18T05:45:27.076Z,75.50
2022-10-18T05:47:54.794Z,83.40
2022-10-18T05:50:21.344Z,72.93
2022-10-18T05:52:47.873Z,66.23
2022-10-18T05:55:14.347Z,83.73
2022-10-18T05:57:40.816Z,66.17
2022-10-18T06:00:07.893Z,64.57
2022-10-18T06:02:34.600Z,83.17
2022-10-18T06:05:01.084Z,67.70
2022-10-18T06:07:27.579Z,60.37
2022-10-18T06:09:54.033Z,65.93
2022-10-18T06:12:20.529Z,61.70
2022-10-18T06:14:47.700Z,64.83
2022-10-18T06:17:14.283Z,67.40
2022-10-18T06:19:40.840Z,88.53
2022-10-18T06:22:07.359Z,73.53
2022-10-18T06:24:33.839Z,74.33
2022-10-18T06:27:00.422Z,60.50
2022-10-18T06:29:27.028Z,88.63
2022-10-18T06:31:53.509Z,89.13
2022-10-18T06:34:20.133Z,122.53
2022-10-18T06:36:46.626Z,146.20
2022-10-18T06:39:13.138Z,97.60
2022-10-18T06:41:39.600Z,102.97
2022-10-18T06:44:13.658Z,149.47
2022-10-18T06:46:44.311Z,107.07
2022-10-18T06:49:13.082Z,90.93
2022-10-18T06:51:43.677Z,93.87
2022-10-18T06:54:17.964Z,73.23
2022-10-18T06:56:45.454Z,64.47
2022-10-18T06:59:12.120Z,60.83
2022-10-18T07:01:38.866Z,60.67
2022-10-18T07:04:05.481Z,53.27
2022-10-18T07:06:31.968Z,60.80
2022-10-18T07:08:58.484Z,55.13
2022-10-18T07:11:26.703Z,55.17
2022-10-18T07:13:54.992Z,57.27
2022-10-18T07:16:21.638Z,53.30
2022-10-18T07:18:50.627Z,60.20
2022-10-18T07:21:19.799Z,57.80
2022-10-18T07:23:47.043Z,47.17
2022-10-18T07:26:17.880Z,44.40
2022-10-18T07:28:46.242Z,46.77
2022-10-18T07:31:13.246Z,51.70
2022-10-18T07:33:40.160Z,53.27
2022-10-18T07:36:10.234Z,51.67
2022-10-18T07:38:37.074Z,52.50
2022-10-18T07:41:07.074Z,48.23
2022-10-18T07:43:34.657Z,47.50
2022-10-18T07:46:03.340Z,41.63
2022-10-18T07:48:30.165Z,43.17
2022-10-18T07:51:01.192Z,44.10
2022-10-18T07:53:28.871Z,48.27
2022-10-18T07:56:01.337Z,47.80
2022-10-18T07:58:31.968Z,60.50
2022-10-18T08:01:02.363Z,43.93
2022-10-18T08:03:28.867Z,47.87
2022-10-18T08:05:55.639Z,44.30
2022-10-18T08:08:23.870Z,49.87
2022-10-18T08:10:50.457Z,49.53
2022-10-18T08:13:17.327Z,44.40
2022-10-18T08:15:44.175Z,48.63
2022-10-18T08:18:10.809Z,48.83
2022-10-18T08:20:37.874Z,37.60
2022-10-18T08:23:05.175Z,37.90
2022-10-18T08:25:31.848Z,44.00
2022-10-18T08:27:58.581Z,38.10
2022-10-18T08:30:25.129Z,44.90
2022-10-18T08:32:51.663Z,31.50
2022-10-18T08:35:18.326Z,35.77
2022-10-18T08:37:45.406Z,35.87
2022-10-18T08:40:15.166Z,37.53
2022-10-18T08:43:09.405Z,33.70
2022-10-18T08:45:43.226Z,34.00
2022-10-18T08:48:39.401Z,33.37
2022-10-18T08:51:18.357Z,34.50
2022-10-18T08:54:12.691Z,37.80
2022-10-18T08:56:43.086Z,28.53
2022-10-18T08:59:11.951Z,30.73
2022-10-18T09:01:56.366Z,27.40
2022-10-18T09:04:34.927Z,28.03
2022-10-18T09:07:16.615Z,27.23
2022-10-18T09:09:55.102Z,28.93
2022-10-18T09:12:59.354Z,30.10
2022-10-18T09:15:40.147Z,26.57
2022-10-18T09:18:46.349Z,30.13
2022-10-18T09:21:53.004Z,31.57
2022-10-18T09:24:37.725Z,29.33
2022-10-18T09:27:10.736Z,34.17
2022-10-18T09:29:40.424Z,41.93
2022-10-18T09:32:32.299Z,29.53
2022-10-18T09:35:06.297Z,34.77
2022-10-18T09:37:34.991Z,28.43
2022-10-18T09:40:19.123Z,27.47
2022-10-18T09:43:32.255Z,34.13
2022-10-18T09:45:59.129Z,28.13
2022-10-18T09:48:40.573Z,30.63
2022-10-18T09:51:21.828Z,30.20
2022-10-18T09:54:08.953Z,32.83
2022-10-18T09:56:48.021Z,28.53
2022-10-18T09:59:38.540Z,31.33
2022-10-18T10:02:06.248Z,24.20
2022-10-18T10:04:33.070Z,26.00
2022-10-18T10:07:01.854Z,26.23
2022-10-18T10:09:40.756Z,28.30
2022-10-18T10:12:26.806Z,24.70
2022-10-18T10:14:53.405Z,26.50
2022-10-18T10:17:29.767Z,26.20
2022-10-18T10:20:04.414Z,22.10
2022-10-18T10:22:38.348Z,22.10
2022-10-18T10:25:06.121Z,26.37
2022-10-18T10:27:46.113Z,25.60
2022-10-18T10:30:34.337Z,20.23
2022-10-18T10:33:01.507Z,18.63
2022-10-18T10:35:53.808Z,26.90
2022-10-18T10:38:26.353Z,26.10
2022-10-18T10:40:53.306Z,21.20
2022-10-18T10:43:38.067Z,21.37
2022-10-18T10:46:08.070Z,29.73
2022-10-18T10:49:35.018Z,21.87
2022-10-18T10:52:08.609Z,29.43
2022-10-18T10:54:39.139Z,21.50
2022-10-18T10:57:12.558Z,26.70
2022-10-18T10:59:47.975Z,21.97
2022-10-18T11:02:15.072Z,23.27
2022-10-18T11:04:42.543Z,23.27
2022-10-18T11:07:08.967Z,18.83
2022-10-18T11:09:48.169Z,20.00
2022-10-18T11:12:23.897Z,23.37
2022-10-18T11:14:56.290Z,20.43
2022-10-18T11:17:22.732Z,22.07
2022-10-18T11:20:07.265Z,22.23
2022-10-18T11:22:38.847Z,13.53
2022-10-18T11:25:06.079Z,20.93
2022-10-18T11:27:57.894Z,15.73
2022-10-18T11:30:30.304Z,18.67
2022-10-18T11:33:06.720Z,23.80
2022-10-18T11:35:44.405Z,13.40
2022-10-18T11:38:24.825Z,16.87
2022-10-18T11:41:17.236Z,9.90
2022-10-18T11:44:02.349Z,14.50
2022-10-18T11:46:32.784Z,12.40
2022-10-18T11:49:22.584Z,9.93
2022-10-18T11:52:12.805Z,11.20
2022-10-18T11:54:45.162Z,11.73
2022-10-18T11:57:24.147Z,7.20
2022-10-18T11:59:56.761Z,10.77
2022-10-18T12:02:54.213Z,9.57
2022-10-18T12:05:24.044Z,14.57
2022-10-18T12:08:02.499Z,11.57
2022-10-18T12:10:45.826Z,9.87
2022-10-18T12:13:25.549Z,18.37
2022-10-18T12:15:52.508Z,9.93
2022-10-18T12:18:23.417Z,9.93
2022-10-18T12:20:54.047Z,9.60
2022-10-18T12:23:29.902Z,12.50
2022-10-18T12:26:03.438Z,8.63
2022-10-18T12:28:33.043Z,11.87
2022-10-18T12:31:20.188Z,14.90
2022-10-18T12:33:50.388Z,11.40
2022-10-18T12:36:22.643Z,9.43
2022-10-18T12:38:58.655Z,11.50
2022-10-18T12:41:28.209Z,7.10
2022-10-18T12:44:06.480Z,17.27
2022-10-18T12:46:57.821Z,14.50
2022-10-18T12:49:29.763Z,14.87
2022-10-18T12:51:59.684Z,11.90
2022-10-18T12:54:34.415Z,8.57
2022-10-18T12:57:02.854Z,12.50
2022-10-18T12:59:29.260Z,12.10
2022-10-18T13:01:55.751Z,9.57
2022-10-18T13:04:28.473Z,16.13
2022-10-18T13:07:00.881Z,11.73
2022-10-18T13:09:30.345Z,9.33
2022-10-18T13:12:09.257Z,12.53
2022-10-18T13:15:12.721Z,9.57
2022-10-18T13:17:47.109Z,9.93
2022-10-18T13:20:31.934Z,10.37
2022-10-18T13:23:26.136Z,8.90
2022-10-18T13:26:04.970Z,10.57
2022-10-18T13:28:50.144Z,10.80
2022-10-18T13:31:44.207Z,6.50
2022-10-18T13:34:17.813Z,11.77
2022-10-18T13:36:44.678Z,11.90
2022-10-18T13:39:20.389Z,10.60
2022-10-18T13:41:46.840Z,13.97
2022-10-18T13:44:37.386Z,10.10
2022-10-18T13:47:03.814Z,14.23
2022-10-18T13:49:39.213Z,10.17
2022-10-18T13:52:36.702Z,15.00
2022-10-18T13:55:14.613Z,16.13
2022-10-18T13:57:49.801Z,9.20
2022-10-18T14:00:40.272Z,11.70
2022-10-18T14:03:58.280Z,16.80
2022-10-18T14:06:40.327Z,9.40
2022-10-18T14:09:32.550Z,10.27
2022-10-18T14:12:43.681Z,10.63
2022-10-18T14:15:32.803Z,11.63
2022-10-18T14:18:04.845Z,12.90
2022-10-18T14:20:48.955Z,6.50
2022-10-18T14:23:22.093Z,11.17
2022-10-18T14:25:48.846Z,12.63
2022-10-18T14:28:31.265Z,8.27
2022-10-18T14:31:09.355Z,11.23
2022-10-18T14:33:41.546Z,9.77
2022-10-18T14:36:22.060Z,13.53
2022-10-18T14:38:58.990Z,11.27
2022-10-18T14:41:34.729Z,11.13
2022-10-18T14:44:21.465Z,6.00
2022-10-18T14:47:14.994Z,12.13
2022-10-18T14:49:46.158Z,8.07
2022-10-18T14:52:17.683Z,10.80
2022-10-18T14:54:45.200Z,12.47
2022-10-18T14:57:23.539Z,10.53
2022-10-18T14:59:57.034Z,10.07
2022-10-18T15:02:26.747Z,10.07
2022-10-18T15:04:59.691Z,11.60
2022-10-18T15:07:29.316Z,15.27
2022-10-18T15:09:59.227Z,11.77
2022-10-18T15:12:29.627Z,11.47
2022-10-18T15:15:00.273Z,9.97
2022-10-18T15:17:29.975Z,11.43
2022-10-18T15:20:01.954Z,11.80
2022-10-18T15:22:33.228Z,10.40
2022-10-18T15:25:05.963Z,8.70
2022-10-18T15:27:36.462Z,14.73
2022-10-18T15:30:28.921Z,12.10
2022-10-18T15:33:04.481Z,12.37
2022-10-18T15:35:34.724Z,10.37
2022-10-18T15:38:16.813Z,6.70
2022-10-18T15:40:44.151Z,5.57
2022-10-18T15:43:22.826Z,8.23
2022-10-18T15:45:51.512Z,9.17
2022-10-18T15:48:39.635Z,8.67
2022-10-18T15:51:12.568Z,5.97
2022-10-18T15:53:53.657Z,9.37
2022-10-18T15:56:38.177Z,8.33
2022-10-18T15:59:20.692Z,9.50
2022-10-18T16:01:47.264Z,9.10
2022-10-18T16:04:25.909Z,14.00
2022-10-18T16:06:54.215Z,13.10
2022-10-18T16:09:22.074Z,9.47
2022-10-18T16:11:56.401Z,14.27
2022-10-18T16:14:23.745Z,7.70
2022-10-18T16:16:54.444Z,8.77
2022-10-18T16:19:22.706Z,7.13
2022-10-18T16:21:50.774Z,9.00
2022-10-18T16:24:17.781Z,10.87
2022-10-18T16:26:44.376Z,11.03
2022-10-18T16:29:33.045Z,13.30
2022-10-18T16:32:00.018Z,9.87
2022-10-18T16:34:27.134Z,7.97
2022-10-18T16:36:54.518Z,8.40
2022-10-18T16:39:22.694Z,8.37
2022-10-18T16:42:06.992Z,7.03
2022-10-18T16:44:33.464Z,9.73
2022-10-18T16:46:59.995Z,8.27
2022-10-18T16:49:26.765Z,10.37
2022-10-18T16:51:54.198Z,13.07
2022-10-18T16:54:20.836Z,9.80
2022-10-18T16:56:50.352Z,7.73
2022-10-18T16:59:31.070Z,5.77
2022-10-18T17:01:57.895Z,9.73
2022-10-18T17:04:24.542Z,11.90
2022-10-18T17:06:52.659Z,8.27
2022-10-18T17:09:19.171Z,8.87
2022-10-18T17:11:45.699Z,12.30
2022-10-18T17:14:12.173Z,7.43
2022-10-18T17:16:39.127Z,14.47
2022-10-18T17:19:07.964Z,7.67
2022-10-18T17:21:34.585Z,17.17
2022-10-18T17:24:06.005Z,14.93
2022-10-18T17:26:33.783Z,13.47
2022-10-18T17:29:04.050Z,14.87
2022-10-18T17:31:31.698Z,7.73
2022-10-18T17:33:59.790Z,8.13
2022-10-18T17:36:26.290Z,11.77
2022-10-18T17:38:54.219Z,12.00
2022-10-18T17:41:21.306Z,12.43
2022-10-18T17:43:48.439Z,7.70
2022-10-18T17:46:15.898Z,9.23
2022-10-18T17:48:42.824Z,6.73
2022-10-18T17:51:11.384Z,8.97
2022-10-18T17:53:38.285Z,10.37
2022-10-18T17:56:05.688Z,10.90
2022-10-18T17:58:32.380Z,6.43
2022-10-18T18:01:09.649Z,4.27
2022-10-18T18:04:07.167Z,6.37
2022-10-18T18:06:36.263Z,9.27
2022-10-18T18:09:14.192Z,8.97
2022-10-18T18:11:43.545Z,8.17
2022-10-18T18:14:11.580Z,7.87
2022-10-18T18:16:41.240Z,8.70
2022-10-18T18:19:09.957Z,6.53
2022-10-18T18:21:37.109Z,6.23
2022-10-18T18:24:03.891Z,7.57
2022-10-18T18:26:35.159Z,5.67
2022-10-18T18:31:34.332Z,6.37
2022-10-18T18:34:05.338Z,4.77
2022-10-18T18:36:32.685Z,4.17
2022-10-18T18:38:59.395Z,3.93
2022-10-18T18:41:27.647Z,6.20
2022-10-18T18:43:54.293Z,3.53
2022-10-18T18:46:22.081Z,3.00
2022-10-18T18:48:49.058Z,3.93
2022-10-18T18:51:18.638Z,2.70
2022-10-18T18:53:46.855Z,4.43
2022-10-18T18:56:24.289Z,4.30
2022-10-18T18:58:52.519Z,5.43
2022-10-18T19:01:22.210Z,6.23
2022-10-18T19:03:51.526Z,5.50
2022-10-18T19:06:27.753Z,2.73
2022-10-18T19:09:00.669Z,2.30
2022-10-18T19:11:29.626Z,2.80
2022-10-18T19:13:56.225Z,9.30
2022-10-18T19:16:24.677Z,6.00
2022-10-18T19:18:56.082Z,5.53
2022-10-18T19:21:24.659Z,7.77
2022-10-18T19:23:51.588Z,6.60
2022-10-18T19:26:30.295Z,4.70
2022-10-18T19:29:01.875Z,4.87
2022-10-18T19:31:28.876Z,6.87
2022-10-18T19:33:59.788Z,7.40
2022-10-18T19:36:27.840Z,9.20
2022-10-18T19:38:54.642Z,8.30
2022-10-18T19:41:21.710Z,5.53
2022-10-18T19:43:48.456Z,6.13
2022-10-18T19:46:15.105Z,8.67
2022-10-18T19:48:41.964Z,6.67
2022-10-18T19:51:09.751Z,8.63
2022-10-18T19:53:37.013Z,7.07
2022-10-18T19:56:05.416Z,7.20
2022-10-18T19:58:32.269Z,6.93
2022-10-18T20:01:00.200Z,7.90
2022-10-18T20:03:30.307Z,9.93
2022-10-18T20:06:02.566Z,11.70
2022-10-18T20:08:32.378Z,6.77
2022-10-18T20:11:14.617Z,9.83
2022-10-18T20:13:41.336Z,8.83
2022-10-18T20:16:10.395Z,7.03
2022-10-18T20:18:37.422Z,9.30
2022-10-18T20:21:05.908Z,9.10
2022-10-18T20:23:34.653Z,9.50
2022-10-18T20:26:04.593Z,11.07
2022-10-18T20:28:32.672Z,7.33
2022-10-18T20:30:59.976Z,9.77
2022-10-18T20:33:26.448Z,10.60
2022-10-18T20:35:53.037Z,7.93
2022-10-18T20:38:20.052Z,7.60
2022-10-18T20:40:46.641Z,8.00
2022-10-18T20:43:13.178Z,8.80
2022-10-18T20:45:39.691Z,11.30
2022-10-18T20:48:06.277Z,6.27
2022-10-18T20:50:32.774Z,5.47
2022-10-18T20:52:59.276Z,5.20
2022-10-18T20:55:25.769Z,6.10
2022-10-18T20:57:52.258Z,7.03
2022-10-18T21:00:18.790Z,8.37
2022-10-18T21:02:45.332Z,7.60
2022-10-18T21:05:12.027Z,9.50
2022-10-18T21:07:38.510Z,5.63
2022-10-18T21:10:05.568Z,6.63
2022-10-18T21:12:32.254Z,6.83
2022-10-18T21:14:59.345Z,4.43
2022-10-18T21:17:25.908Z,6.43
2022-10-18T21:19:53.695Z,4.40
2022-10-18T21:22:20.187Z,3.60
2022-10-18T21:24:46.695Z,6.13
2022-10-18T21:27:13.754Z,5.90
2022-10-18T21:29:40.235Z,6.57
2022-10-18T21:32:06.736Z,9.47
2022-10-18T21:34:33.309Z,6.80
2022-10-18T21:36:59.820Z,6.70
2022-10-18T21:39:26.325Z,7.53
2022-10-18T21:41:52.888Z,9.57
2022-10-18T21:44:19.496Z,7.60
2022-10-18T21:46:46.904Z,8.80
2022-10-18T21:49:14.322Z,10.30
2022-10-18T21:51:41.584Z,8.30
2022-10-18T21:54:14.676Z,7.90
2022-10-18T21:56:41.724Z,8.73
2022-10-18T21:59:08.290Z,6.63
2022-10-18T22:01:37.894Z,5.17
2022-10-18T22:04:07.940Z,3.87
2022-10-18T22:06:36.394Z,4.67
2022-10-18T22:09:08.220Z,7.07
2022-10-18T22:11:38.432Z,5.47
2022-10-18T22:14:04.951Z,5.87
2022-10-18T22:16:31.962Z,5.20
2022-10-18T22:19:00.987Z,2.73
2022-10-18T22:21:28.286Z,7.27
2022-10-18T22:23:59.103Z,4.87
2022-10-18T22:26:29.615Z,6.40
2022-10-18T22:29:04.325Z,4.27
2022-10-18T22:31:33.509Z,4.87
2022-10-18T22:34:05.159Z,4.40
2022-10-18T22:36:32.265Z,5.40
2022-10-18T22:39:00.081Z,5.23
2022-10-18T22:41:26.782Z,4.83
2022-10-18T22:43:55.548Z,6.37
2022-10-18T22:46:24.171Z,8.70
2022-10-18T22:48:50.683Z,5.57
2022-10-18T22:51:17.888Z,6.10
2022-10-18T22:53:45.171Z,9.40
2022-10-18T22:56:15.189Z,3.93
2022-10-18T22:58:41.794Z,3.83
2022-10-18T23:01:10.922Z,4.47
2022-10-18T23:03:38.312Z,3.57
2022-10-18T23:06:17.172Z,4.17
2022-10-18T23:08:43.637Z,5.77
2022-10-18T23:11:10.130Z,5.73
2022-10-18T23:13:39.461Z,5.23
2022-10-18T23:16:06.596Z,6.17
2022-10-18T23:18:33.599Z,4.17
2022-10-18T23:21:08.069Z,6.43
2022-10-18T23:23:38.143Z,3.73
2022-10-18T23:26:07.191Z,5.27
2022-10-18T23:28:38.955Z,5.20
2022-10-18T23:31:28.487Z,8.73
2022-10-18T23:33:57.060Z,5.10
2022-10-18T23:36:24.266Z,4.80
2022-10-18T23:38:51.169Z,6.57
2022-10-18T23:41:18.171Z,4.23
2022-10-18T23:43:45.003Z,7.53
2022-10-18T23:46:12.634Z,8.27
2022-10-18T23:48:39.269Z,6.37
2022-10-18T23:51:06.498Z,9.37
2022-10-18T23:53:33.366Z,3.80
2022-10-18T23:56:02.954Z,4.53
2022-10-18T23:58:31.366Z,5.83
